Time;durP1;ratioP1;P1;durP2;ratioP2;P2;SDS_P1;SDS_P2;PMS_P1;PMS_P2;Temp;Humidity;BMP_temperature;BMP_pressure;BME280_temperature;BME280_humidity;BME280_pressure;Samples;Min_cycle;Max_cycle;Signal;HPM_P1;HPM_P2
2022/03/29 00:00:50;;;;;;;44.42;21.90;;;9.90;99.90;;;;;;5056861;28;20037;-58
2022/03/29 00:03:16;;;;;;;49.20;22.08;;;9.90;99.90;;;;;;5064190;28;20054;-60
2022/03/29 00:05:41;;;;;;;44.25;22.55;;;9.90;99.90;;;;;;5060139;28;20039;-55
2022/03/29 00:08:07;;;;;;;45.60;20.92;;;9.90;99.90;;;;;;5061731;28;20029;-57
2022/03/29 00:10:33;;;;;;;46.60;23.98;;;9.90;99.90;;;;;;5061442;28;20040;-57
2022/03/29 00:12:59;;;;;;;41.05;21.15;;;9.90;99.90;;;;;;5060809;28;20039;-58
2022/03/29 00:15:25;;;;;;;44.55;22.75;;;9.90;99.90;;;;;;5073677;28;20028;-60
2022/03/29 00:17:51;;;;;;;45.90;22.45;;;9.90;99.90;;;;;;5054250;28;20032;-57
2022/03/29 00:20:18;;;;;;;41.67;21.40;;;9.90;99.90;;;;;;5056959;28;20040;-55
2022/03/29 00:22:43;;;;;;;49.70;22.00;;;9.90;99.90;;;;;;5053198;28;20385;-58
2022/03/29 00:25:10;;;;;;;42.97;22.17;;;9.80;99.90;;;;;;5034620;28;20051;-57
2022/03/29 00:27:36;;;;;;;39.85;21.45;;;9.90;99.90;;;;;;5058119;28;20083;-57
2022/03/29 00:30:07;;;;;;;43.80;21.35;;;9.80;99.90;;;;;;5052996;28;20025;-58
2022/03/29 00:32:33;;;;;;;50.35;22.13;;;9.80;99.90;;;;;;5053026;28;20040;-58
2022/03/29 00:34:59;;;;;;;46.90;23.08;;;9.90;99.90;;;;;;5056575;28;20052;-58
2022/03/29 00:37:25;;;;;;;46.22;22.58;;;9.80;99.90;;;;;;5068388;28;20044;-54
2022/03/29 00:39:50;;;;;;;43.38;22.00;;;9.80;99.90;;;;;;5046203;28;20483;-58
2022/03/29 00:42:16;;;;;;;44.08;22.65;;;9.80;99.90;;;;;;5055217;28;20132;-57
2022/03/29 00:44:42;;;;;;;44.70;24.30;;;9.90;99.90;;;;;;5061670;28;20033;-59
2022/03/29 00:47:07;;;;;;;46.78;22.80;;;9.90;99.90;;;;;;5060429;28;20033;-57
2022/03/29 00:49:33;;;;;;;40.30;20.98;;;10.00;99.90;;;;;;5059193;28;20036;-58
2022/03/29 00:52:01;;;;;;;41.28;21.95;;;9.90;99.90;;;;;;5062882;28;20414;-57
2022/03/29 00:54:33;;;;;;;39.58;21.50;;;10.00;99.90;;;;;;5060461;28;20045;-57
2022/03/29 00:57:00;;;;;;;41.10;21.20;;;10.00;99.90;;;;;;5059851;28;20036;-58
2022/03/29 00:59:28;;;;;;;43.90;21.42;;;10.00;99.90;;;;;;5052353;28;20027;-57
2022/03/29 01:01:54;;;;;;;46.08;23.20;;;9.90;99.90;;;;;;5063602;28;20032;-58
2022/03/29 01:04:21;;;;;;;45.33;21.13;;;9.80;99.90;;;;;;5052657;28;20381;-60
2022/03/29 01:06:47;;;;;;;43.90;22.42;;;9.80;99.90;;;;;;5062404;28;20058;-58
2022/03/29 01:09:12;;;;;;;49.38;23.50;;;9.80;99.90;;;;;;5072492;28;20036;-59
2022/03/29 01:11:39;;;;;;;43.47;21.40;;;9.70;99.90;;;;;;5056441;28;20029;-57
2022/03/29 01:14:05;;;;;;;44.33;22.48;;;9.80;99.90;;;;;;5057546;28;20480;-58
2022/03/29 01:19:19;;;;;;;48.47;23.33;;;9.80;99.90;;;;;;5063184;28;20036;-59
2022/03/29 01:22:05;;;;;;;56.35;24.30;;;9.90;99.90;;;;;;5071853;28;20029;-59
2022/03/29 01:24:32;;;;;;;43.85;23.27;;;9.90;99.90;;;;;;5052619;28;20044;-59
2022/03/29 01:27:04;;;;;;;47.20;23.25;;;9.80;99.90;;;;;;5064872;28;20027;-62
2022/03/29 01:29:30;;;;;;;40.78;23.15;;;9.80;99.90;;;;;;5063164;28;20036;-59
2022/03/29 01:31:58;;;;;;;57.75;24.20;;;9.90;99.90;;;;;;5060837;28;20020;-59
2022/03/29 01:34:25;;;;;;;48.90;23.13;;;9.80;99.90;;;;;;5053910;28;20392;-59
2022/03/29 01:36:51;;;;;;;48.83;24.98;;;9.80;99.90;;;;;;5053870;28;20025;-57
2022/03/29 01:39:17;;;;;;;50.33;23.65;;;9.80;99.90;;;;;;5071388;28;20039;-58
2022/03/29 01:41:42;;;;;;;49.70;24.17;;;9.80;99.90;;;;;;5061562;28;20123;-60
2022/03/29 01:44:09;;;;;;;46.67;23.67;;;9.70;99.90;;;;;;5070061;28;20165;-57
2022/03/29 01:46:35;;;;;;;45.80;24.02;;;9.60;99.90;;;;;;5057202;28;20025;-59
2022/03/29 01:49:02;;;;;;;46.20;24.20;;;9.70;99.90;;;;;;5069874;28;20085;-60
2022/03/29 01:51:28;;;;;;;52.45;22.98;;;9.70;99.90;;;;;;5069874;28;20515;-60
2022/03/29 01:53:56;;;;;;;46.55;22.73;;;9.70;99.90;;;;;;5063368;28;20600;-58
2022/03/29 01:56:22;;;;;;;50.65;23.35;;;9.70;99.90;;;;;;5060713;28;20488;-58
2022/03/29 01:58:47;;;;;;;47.17;23.40;;;9.70;99.90;;;;;;5063352;28;20036;-57
2022/03/29 02:01:13;;;;;;;50.17;25.35;;;9.60;99.90;;;;;;5064504;28;20060;-59
2022/03/29 02:03:39;;;;;;;47.88;24.08;;;9.50;99.90;;;;;;5066090;28;20032;-59
2022/03/29 02:06:05;;;;;;;43.63;24.05;;;9.50;99.90;;;;;;5054903;28;20039;-58
2022/03/29 02:08:30;;;;;;;52.38;24.55;;;9.50;99.90;;;;;;5068898;28;20032;-58
2022/03/29 02:10:56;;;;;;;44.97;22.83;;;9.50;99.90;;;;;;5063876;28;20033;-57
2022/03/29 02:13:22;;;;;;;45.83;23.55;;;9.40;99.90;;;;;;5050834;28;20400;-58
2022/03/29 02:15:48;;;;;;;51.65;25.55;;;9.40;99.90;;;;;;5056477;28;20059;-59
2022/03/29 02:18:14;;;;;;;50.40;24.38;;;9.40;99.90;;;;;;5053741;28;20021;-58
2022/03/29 02:20:41;;;;;;;44.15;23.75;;;9.30;99.90;;;;;;5064895;28;20094;-58
2022/03/29 02:23:09;;;;;;;46.88;22.42;;;9.30;99.90;;;;;;5056188;28;20500;-58
2022/03/29 02:25:35;;;;;;;46.70;22.38;;;9.20;99.90;;;;;;5041007;28;20045;-59
2022/03/29 02:28:02;;;;;;;44.88;23.27;;;9.20;99.90;;;;;;5055570;28;20068;-60
2022/03/29 02:30:28;;;;;;;49.45;23.38;;;9.30;99.90;;;;;;5054717;28;20519;-57
2022/03/29 02:32:53;;;;;;;49.67;23.45;;;9.30;99.90;;;;;;5050927;28;20060;-57
2022/03/29 02:35:19;;;;;;;42.13;22.67;;;9.30;99.90;;;;;;5051874;28;20086;-59
2022/03/29 02:37:45;;;;;;;45.03;23.05;;;9.20;99.90;;;;;;5055483;28;20024;-58
2022/03/29 02:40:13;;;;;;;45.75;23.17;;;9.20;99.90;;;;;;5065776;28;20082;-57
2022/03/29 02:42:47;;;;;;;44.10;23.48;;;9.10;99.90;;;;;;5069614;28;20418;-58
2022/03/29 02:45:15;;;;;;;45.30;23.48;;;9.10;99.90;;;;;;5060589;28;20539;-59
2022/03/29 02:47:42;;;;;;;43.58;22.58;;;9.00;99.90;;;;;;5058679;28;20029;-58
2022/03/29 02:50:08;;;;;;;51.53;24.05;;;9.00;99.90;;;;;;5059609;28;20033;-59
2022/03/29 02:52:33;;;;;;;47.25;23.48;;;9.00;99.90;;;;;;5067174;28;20039;-59
2022/03/29 02:54:59;;;;;;;41.80;22.67;;;9.00;99.90;;;;;;5050772;28;20105;-57
2022/03/29 02:57:24;;;;;;;46.58;24.10;;;8.90;99.90;;;;;;5070672;28;20027;-58
2022/03/29 02:59:50;;;;;;;50.65;22.92;;;8.80;99.90;;;;;;5051841;28;20650;-56
2022/03/29 03:02:15;;;;;;;47.90;24.23;;;8.80;99.90;;;;;;5063855;28;20024;-58
2022/03/29 03:04:41;;;;;;;46.88;22.60;;;8.80;99.90;;;;;;5055279;28;20029;-59
2022/03/29 03:07:06;;;;;;;44.53;23.52;;;8.80;99.90;;;;;;5065445;28;20078;-57
2022/03/29 03:09:32;;;;;;;50.75;24.83;;;8.90;99.90;;;;;;5052253;28;20415;-58
2022/03/29 03:11:57;;;;;;;48.72;24.60;;;8.90;99.90;;;;;;5062511;28;20028;-60
2022/03/29 03:14:23;;;;;;;46.90;23.40;;;8.90;99.90;;;;;;5063229;28;20108;-57
2022/03/29 03:16:49;;;;;;;58.03;26.15;;;8.90;99.90;;;;;;5049968;28;20025;-53
2022/03/29 03:19:15;;;;;;;48.83;24.83;;;8.90;99.90;;;;;;5068442;28;20029;-58
2022/03/29 03:21:41;;;;;;;48.20;24.52;;;8.90;99.90;;;;;;5058950;28;20061;-56
2022/03/29 03:24:07;;;;;;;45.92;25.10;;;8.90;99.90;;;;;;5038414;28;20060;-57
2022/03/29 03:26:32;;;;;;;50.70;25.38;;;8.90;99.90;;;;;;5061184;28;20047;-56
2022/03/29 03:28:58;;;;;;;46.63;24.00;;;9.00;99.90;;;;;;5064825;28;20020;-59
2022/03/29 03:31:23;;;;;;;48.55;25.13;;;8.90;99.90;;;;;;5061670;28;20049;-56
2022/03/29 03:33:49;;;;;;;47.85;23.85;;;8.90;99.90;;;;;;5054304;28;20037;-58
2022/03/29 03:36:14;;;;;;;42.42;24.25;;;8.80;99.90;;;;;;5058985;28;20020;-59
2022/03/29 03:38:40;;;;;;;48.15;25.00;;;8.80;99.90;;;;;;5054937;28;20029;-56
2022/03/29 03:41:05;;;;;;;47.70;25.02;;;8.70;99.90;;;;;;5058570;28;20372;-58
2022/03/29 03:43:31;;;;;;;52.25;25.02;;;8.70;99.90;;;;;;5054283;28;20114;-58
2022/03/29 03:45:57;;;;;;;53.88;24.73;;;8.70;99.90;;;;;;5060733;28;20032;-58
2022/03/29 03:48:23;;;;;;;48.28;24.92;;;8.70;99.90;;;;;;5064399;28;20025;-59
2022/03/29 03:50:49;;;;;;;51.97;24.48;;;8.70;99.90;;;;;;5066347;28;20082;-58
2022/03/29 03:53:14;;;;;;;52.65;24.42;;;8.70;99.90;;;;;;5067262;28;20024;-57
2022/03/29 03:55:40;;;;;;;46.25;24.40;;;8.70;99.90;;;;;;5057722;28;20518;-57
2022/03/29 03:58:05;;;;;;;53.50;24.48;;;8.70;99.90;;;;;;5072380;28;20439;-58
2022/03/29 04:00:31;;;;;;;42.65;23.92;;;8.70;99.90;;;;;;5062619;28;20040;-57
2022/03/29 04:02:57;;;;;;;48.25;23.90;;;8.70;99.90;;;;;;5056791;28;20033;-58
2022/03/29 04:05:23;;;;;;;52.35;26.02;;;8.70;99.90;;;;;;5055153;28;20078;-59
2022/03/29 04:07:49;;;;;;;53.17;23.67;;;8.70;99.90;;;;;;5066870;28;20021;-60
2022/03/29 04:10:14;;;;;;;53.50;26.05;;;8.70;99.90;;;;;;5062593;28;20074;-59
2022/03/29 04:12:40;;;;;;;50.22;24.95;;;8.70;99.90;;;;;;5066819;28;20039;-59
2022/03/29 04:15:06;;;;;;;54.35;24.50;;;8.70;99.90;;;;;;5072649;28;20028;-59
2022/03/29 04:17:32;;;;;;;48.65;25.23;;;8.70;99.90;;;;;;5057132;28;20549;-58
2022/03/29 04:19:58;;;;;;;47.63;24.40;;;8.70;99.90;;;;;;5063490;28;20017;-58
2022/03/29 04:22:24;;;;;;;46.85;24.40;;;8.70;99.90;;;;;;5056776;28;20116;-58
2022/03/29 04:24:50;;;;;;;50.92;25.33;;;8.70;99.90;;;;;;5042732;28;20135;-58
2022/03/29 04:27:15;;;;;;;51.03;24.65;;;8.70;99.90;;;;;;5056633;28;20082;-57
2022/03/29 04:29:41;;;;;;;48.45;23.83;;;8.70;99.90;;;;;;5066820;28;20112;-58
2022/03/29 04:32:07;;;;;;;46.85;23.65;;;8.70;99.90;;;;;;5067523;28;20064;-57
2022/03/29 04:34:34;;;;;;;47.15;23.48;;;8.80;99.90;;;;;;5072275;28;20024;-56
2022/03/29 04:36:59;;;;;;;49.20;24.10;;;8.80;99.90;;;;;;5062897;28;20421;-59
2022/03/29 04:39:26;;;;;;;63.22;24.20;;;8.80;99.90;;;;;;5072255;28;20029;-57
2022/03/29 04:41:52;;;;;;;50.97;26.58;;;8.80;99.90;;;;;;5058256;28;20538;-59
2022/03/29 04:44:17;;;;;;;49.25;25.52;;;8.80;99.90;;;;;;5068054;28;20029;-58
2022/03/29 04:46:44;;;;;;;54.50;25.17;;;8.80;99.90;;;;;;5062282;28;20151;-58
2022/03/29 04:49:09;;;;;;;53.05;24.13;;;8.80;99.90;;;;;;5057560;28;20029;-58
2022/03/29 04:51:35;;;;;;;49.50;23.27;;;8.70;99.90;;;;;;5067202;28;20373;-58
2022/03/29 04:54:01;;;;;;;55.67;25.98;;;8.70;99.90;;;;;;5055756;28;20441;-57
2022/03/29 04:56:27;;;;;;;48.25;24.90;;;8.60;99.90;;;;;;5071852;28;20024;-57
2022/03/29 04:58:53;;;;;;;52.25;25.17;;;8.60;99.90;;;;;;5071560;28;20055;-58
2022/03/29 05:01:18;;;;;;;54.38;25.08;;;8.60;99.90;;;;;;5064474;28;20025;-58
2022/03/29 05:03:44;;;;;;;48.83;24.23;;;8.60;99.90;;;;;;5052298;28;20108;-59
2022/03/29 05:06:10;;;;;;;41.97;23.02;;;8.60;99.90;;;;;;5056634;28;20099;-58
2022/03/29 05:08:35;;;;;;;45.72;24.33;;;8.60;99.90;;;;;;5063373;28;20020;-58
2022/03/29 05:11:01;;;;;;;44.35;23.40;;;8.50;99.90;;;;;;5063925;28;20029;-57
2022/03/29 05:13:28;;;;;;;43.15;23.27;;;8.60;99.90;;;;;;5064665;28;20029;-58
2022/03/29 05:15:54;;;;;;;47.15;22.58;;;8.50;99.90;;;;;;5053556;28;20025;-56
2022/03/29 05:18:19;;;;;;;54.33;25.45;;;8.50;99.90;;;;;;5057734;28;20502;-59
2022/03/29 05:20:45;;;;;;;53.55;25.55;;;8.50;99.90;;;;;;5071577;28;20027;-58
2022/03/29 05:23:10;;;;;;;48.47;24.38;;;8.50;99.90;;;;;;5056826;28;20021;-58
2022/03/29 05:25:36;;;;;;;46.38;23.95;;;8.40;99.90;;;;;;5049418;28;20421;-61
2022/03/29 05:28:02;;;;;;;40.90;23.08;;;8.40;99.90;;;;;;5051539;28;20029;-59
2022/03/29 05:30:28;;;;;;;48.60;23.85;;;8.40;99.90;;;;;;5066481;28;20400;-57
2022/03/29 05:33:00;;;;;;;55.17;25.10;;;8.40;99.90;;;;;;5065031;28;20035;-58
2022/03/29 05:35:29;;;;;;;44.60;22.65;;;8.40;99.90;;;;;;5065834;28;20503;-60
2022/03/29 05:37:57;;;;;;;48.20;23.38;;;8.40;99.90;;;;;;5071810;28;20103;-58
2022/03/29 05:40:23;;;;;;;43.17;23.27;;;8.40;99.90;;;;;;5056629;28;20070;-58
2022/03/29 05:42:48;;;;;;;50.17;23.75;;;8.50;99.90;;;;;;5060450;28;20033;-58
2022/03/29 05:45:14;;;;;;;46.53;22.55;;;8.50;99.90;;;;;;5055805;28;20442;-56
2022/03/29 05:50:25;;;;;;;50.67;25.48;;;8.50;99.90;;;;;;5054660;28;20036;-56
2022/03/29 05:52:51;;;;;;;46.90;23.48;;;8.50;99.90;;;;;;5054983;28;20124;-58
2022/03/29 05:55:17;;;;;;;48.53;25.40;;;8.50;99.90;;;;;;5067229;28;20526;-59
2022/03/29 05:57:43;;;;;;;50.00;24.27;;;8.50;99.90;;;;;;5071499;28;20471;-58
2022/03/29 06:00:12;;;;;;;52.25;23.70;;;8.50;99.90;;;;;;5053347;28;20064;-59
2022/03/29 06:02:39;;;;;;;49.45;24.25;;;8.50;99.90;;;;;;5060548;28;20025;-60
2022/03/29 06:05:07;;;;;;;45.33;23.30;;;8.60;99.90;;;;;;5065280;28;20107;-55
2022/03/29 06:07:33;;;;;;;56.35;24.67;;;8.60;99.90;;;;;;5054241;28;20021;-60
2022/03/29 06:09:58;;;;;;;49.72;23.98;;;8.70;99.90;;;;;;5035147;28;20584;-60
2022/03/29 06:12:24;;;;;;;46.65;23.50;;;8.70;99.90;;;;;;5049384;28;20036;-59
2022/03/29 06:14:51;;;;;;;46.75;23.42;;;8.80;99.90;;;;;;5045782;28;20033;-59
2022/03/29 06:17:17;;;;;;;49.35;25.20;;;8.90;99.90;;;;;;5035105;28;20032;-59
2022/03/29 06:19:44;;;;;;;50.10;23.10;;;9.00;99.90;;;;;;5032908;28;20515;-59
2022/03/29 06:22:10;;;;;;;46.38;22.90;;;9.00;99.90;;;;;;5033332;28;20032;-59
2022/03/29 06:24:35;;;;;;;51.30;23.92;;;9.00;99.90;;;;;;5041823;28;20048;-58
2022/03/29 06:27:01;;;;;;;46.45;24.20;;;9.00;99.90;;;;;;5065427;28;20031;-55
2022/03/29 06:29:27;;;;;;;57.50;24.33;;;9.10;99.90;;;;;;5061504;28;20021;-57
2022/03/29 06:31:53;;;;;;;40.80;23.25;;;9.10;99.90;;;;;;5060039;28;20506;-60
2022/03/29 06:34:20;;;;;;;49.47;23.45;;;9.20;99.90;;;;;;5050982;28;20404;-59
2022/03/29 06:36:46;;;;;;;42.97;22.73;;;9.30;99.90;;;;;;5054211;28;20547;-61
2022/03/29 06:39:12;;;;;;;44.25;21.92;;;9.40;99.90;;;;;;5055833;28;20111;-59
2022/03/29 06:41:38;;;;;;;44.72;22.75;;;9.50;99.90;;;;;;5061840;28;20108;-60
2022/03/29 06:44:07;;;;;;;46.03;21.70;;;9.60;99.90;;;;;;5064876;28;20017;-60
2022/03/29 06:46:34;;;;;;;40.92;22.88;;;9.70;99.90;;;;;;5050727;28;20020;-58
2022/03/29 06:49:02;;;;;;;51.92;22.75;;;9.70;99.90;;;;;;5050326;28;20037;-60
2022/03/29 06:51:31;;;;;;;47.15;23.10;;;9.70;99.90;;;;;;5063610;28;20025;-58
2022/03/29 06:53:56;;;;;;;48.05;21.77;;;9.70;99.90;;;;;;5068617;28;20052;-59
2022/03/29 06:56:22;;;;;;;47.10;22.05;;;9.80;99.90;;;;;;5066258;28;20122;-58
2022/03/29 06:58:49;;;;;;;42.58;22.33;;;9.70;99.90;;;;;;5066529;28;20049;-60
2022/03/29 07:01:16;;;;;;;41.78;23.10;;;9.80;99.90;;;;;;5058556;28;20029;-58
2022/03/29 07:03:41;;;;;;;44.28;23.15;;;9.90;99.90;;;;;;5061900;28;20025;-58
2022/03/29 07:06:08;;;;;;;37.80;20.63;;;9.90;99.90;;;;;;5060308;28;20020;-59
2022/03/29 07:08:34;;;;;;;44.53;22.02;;;10.00;99.90;;;;;;5059073;28;20032;-61
2022/03/29 07:11:21;;;;;;;42.58;23.50;;;10.20;99.90;;;;;;5054774;28;20426;-59
2022/03/29 07:13:47;;;;;;;48.58;21.30;;;10.20;99.90;;;;;;5056313;28;20024;-60
2022/03/29 07:16:14;;;;;;;43.28;21.20;;;10.40;99.90;;;;;;5055957;28;20035;-60
2022/03/29 07:18:41;;;;;;;42.38;21.40;;;10.40;99.90;;;;;;5055185;28;20036;-61
2022/03/29 07:21:06;;;;;;;42.78;21.77;;;10.60;99.90;;;;;;5050617;28;20446;-59
2022/03/29 07:23:32;;;;;;;38.60;20.48;;;10.80;99.90;;;;;;5051493;28;20099;-61
2022/03/29 07:25:58;;;;;;;43.47;20.13;;;11.00;99.90;;;;;;5053859;28;20048;-60
2022/03/29 07:28:24;;;;;;;34.90;20.35;;;11.20;99.90;;;;;;5061126;28;20021;-60
2022/03/29 07:30:51;;;;;;;42.72;21.00;;;11.40;99.90;;;;;;5056577;28;20033;-58
2022/03/29 07:33:17;;;;;;;34.78;20.85;;;11.60;99.90;;;;;;5051841;28;20033;-59
2022/03/29 07:35:44;;;;;;;38.08;20.40;;;11.80;99.90;;;;;;5040578;28;20032;-58
2022/03/29 07:38:13;;;;;;;42.80;22.05;;;12.00;99.90;;;;;;5050269;28;22064;-59
2022/03/29 07:40:41;;;;;;;38.30;21.23;;;12.10;99.90;;;;;;5067475;28;20044;-61
2022/03/29 07:43:08;;;;;;;44.67;22.20;;;12.10;99.90;;;;;;5049812;28;20484;-57
2022/03/29 07:45:34;;;;;;;39.58;19.73;;;12.10;99.90;;;;;;5056137;28;20474;-58
2022/03/29 07:48:02;;;;;;;37.67;21.05;;;12.30;99.90;;;;;;5056962;28;20029;-59
2022/03/29 07:50:29;;;;;;;32.60;19.40;;;12.40;99.90;;;;;;5060023;28;20040;-58
2022/03/29 07:52:57;;;;;;;35.08;20.65;;;12.40;99.90;;;;;;5050210;28;20127;-58
2022/03/29 07:55:24;;;;;;;40.47;20.92;;;12.50;99.90;;;;;;5055248;28;20450;-58
2022/03/29 07:57:49;;;;;;;30.27;19.27;;;12.30;99.90;;;;;;5060732;28;20115;-60
2022/03/29 08:00:35;;;;;;;34.17;18.83;;;12.50;99.90;;;;;;5068901;28;20750;-60
2022/03/29 08:03:09;;;;;;;33.20;19.25;;;12.50;99.90;;;;;;5063439;28;20430;-59
2022/03/29 08:05:36;;;;;;;38.75;20.35;;;12.70;99.90;;;;;;5061510;28;20503;-59
2022/03/29 08:08:03;;;;;;;35.50;19.83;;;13.00;99.90;;;;;;5059458;28;20029;-58
2022/03/29 08:10:30;;;;;;;34.15;19.05;;;13.40;99.20;;;;;;5069831;28;20027;-59
2022/03/29 08:12:59;;;;;;;37.38;19.85;;;13.60;98.10;;;;;;5063043;28;20372;-61
2022/03/29 08:15:26;;;;;;;42.75;20.20;;;13.80;98.00;;;;;;5060154;28;20025;-59
2022/03/29 08:17:53;;;;;;;35.15;19.92;;;13.90;98.30;;;;;;5059833;28;20536;-60
2022/03/29 08:20:19;;;;;;;37.75;20.88;;;14.00;97.90;;;;;;5058718;28;20096;-57
2022/03/29 08:22:46;;;;;;;38.35;17.80;;;14.20;96.80;;;;;;5063527;28;20108;-59
2022/03/29 08:25:13;;;;;;;35.33;20.77;;;14.20;96.90;;;;;;5040009;28;20041;-59
2022/03/29 08:27:39;;;;;;;33.00;17.95;;;14.30;96.70;;;;;;5059898;28;20028;-59
2022/03/29 08:30:06;;;;;;;34.72;19.20;;;14.70;96.30;;;;;;5072079;28;20089;-63
2022/03/29 08:32:32;;;;;;;33.47;20.25;;;14.80;95.80;;;;;;5060747;28;20079;-59
2022/03/29 08:34:59;;;;;;;30.27;18.58;;;15.20;96.20;;;;;;5058786;28;20063;-57
2022/03/29 08:37:24;;;;;;;28.48;17.73;;;15.40;95.10;;;;;;5053111;28;20029;-57
2022/03/29 08:39:50;;;;;;;36.50;17.85;;;16.10;93.60;;;;;;5066762;28;20100;-55
2022/03/29 08:42:19;;;;;;;27.75;18.35;;;16.10;92.90;;;;;;5067591;28;20025;-57
2022/03/29 08:44:46;;;;;;;27.90;17.92;;;15.90;93.00;;;;;;5053303;28;20032;-58
2022/03/29 08:47:12;;;;;;;24.45;17.77;;;15.70;93.10;;;;;;5056678;28;20024;-58
2022/03/29 08:49:38;;;;;;;29.80;17.17;;;16.20;92.80;;;;;;5052791;28;20207;-57
2022/03/29 08:52:05;;;;;;;31.67;18.67;;;16.40;92.50;;;;;;5053256;28;20591;-58
2022/03/29 08:54:35;;;;;;;26.23;16.00;;;16.10;91.60;;;;;;5061984;28;20399;-58
2022/03/29 08:57:00;;;;;;;31.80;17.65;;;16.00;92.70;;;;;;5061105;28;20040;-56
2022/03/29 08:59:29;;;;;;;26.25;17.67;;;15.70;92.70;;;;;;5053324;28;20510;-56
2022/03/29 09:01:56;;;;;;;28.20;17.05;;;15.80;92.60;;;;;;5052792;28;20086;-59
2022/03/29 09:04:24;;;;;;;28.30;17.83;;;15.60;92.80;;;;;;5055277;28;20021;-56
2022/03/29 09:06:58;;;;;;;28.15;16.58;;;15.10;92.30;;;;;;5070881;28;20048;-58
2022/03/29 09:09:25;;;;;;;26.85;16.60;;;14.70;93.30;;;;;;5071329;28;20021;-57
2022/03/29 09:11:53;;;;;;;28.98;17.48;;;14.50;93.40;;;;;;5071342;28;20056;-58
2022/03/29 09:14:20;;;;;;;27.70;17.23;;;14.50;94.20;;;;;;5070710;28;20082;-57
2022/03/29 09:16:45;;;;;;;27.27;15.90;;;14.50;94.60;;;;;;5053408;28;20056;-58
2022/03/29 09:19:11;;;;;;;28.20;17.23;;;14.60;94.40;;;;;;5052152;28;20056;-57
2022/03/29 09:21:42;;;;;;;25.58;16.38;;;14.50;94.20;;;;;;5055998;28;20021;-56
2022/03/29 09:24:09;;;;;;;23.75;15.68;;;14.60;94.10;;;;;;5061677;28;20023;-56
2022/03/29 09:26:38;;;;;;;28.38;17.13;;;14.70;93.70;;;;;;5053679;28;20032;-56
2022/03/29 09:29:12;;;;;;;29.23;17.48;;;15.00;93.40;;;;;;5071724;28;20074;-58
2022/03/29 09:31:39;;;;;;;24.77;16.15;;;15.20;93.10;;;;;;5055601;28;20028;-58
2022/03/29 09:34:18;;;;;;;24.00;14.32;;;15.80;93.00;;;;;;5060126;28;20063;-56
2022/03/29 09:36:52;;;;;;;19.23;13.27;;;16.10;91.80;;;;;;5070218;28;20028;-56
2022/03/29 09:39:38;;;;;;;25.27;14.88;;;16.20;92.00;;;;;;5068826;28;20476;-57
2022/03/29 09:42:12;;;;;;;24.95;15.25;;;16.20;91.50;;;;;;5051838;28;20391;-58
2022/03/29 09:44:37;;;;;;;19.92;13.23;;;16.10;91.40;;;;;;5064370;28;20542;-57
2022/03/29 09:47:07;;;;;;;18.40;12.63;;;16.20;91.20;;;;;;5059994;28;20012;-58
2022/03/29 09:49:52;;;;;;;18.38;12.30;;;16.30;90.90;;;;;;5053570;28;20494;-58
2022/03/29 09:52:20;;;;;;;21.92;13.02;;;16.60;90.40;;;;;;5062558;28;20027;-56
2022/03/29 09:55:16;;;;;;;15.60;11.70;;;16.70;88.40;;;;;;5060023;28;20455;-55
2022/03/29 09:57:59;;;;;;;20.95;12.52;;;16.60;88.00;;;;;;5063152;28;20032;-59
2022/03/29 10:00:25;;;;;;;16.38;10.98;;;17.10;86.00;;;;;;5058679;28;20028;-57
2022/03/29 10:02:51;;;;;;;18.40;11.82;;;17.60;85.70;;;;;;5062572;28;20029;-54
2022/03/29 10:05:19;;;;;;;17.13;11.43;;;18.00;84.20;;;;;;5063902;28;20024;-54
2022/03/29 10:10:46;;;;;;;15.52;10.48;;;17.60;82.30;;;;;;5056525;28;20047;-58
2022/03/29 10:13:13;;;;;;;17.83;10.82;;;17.80;82.90;;;;;;5050911;28;20029;-58
2022/03/29 10:15:41;;;;;;;18.35;12.55;;;18.00;82.00;;;;;;5052943;28;20033;-57
2022/03/29 10:18:07;;;;;;;17.08;11.20;;;18.00;81.70;;;;;;5050548;28;20021;-59
2022/03/29 10:20:33;;;;;;;18.48;12.07;;;18.10;80.00;;;;;;5051699;28;20036;-57
2022/03/29 10:22:59;;;;;;;17.73;11.15;;;18.50;81.10;;;;;;5051205;28;20410;-59
2022/03/29 10:25:26;;;;;;;18.83;11.25;;;18.70;81.50;;;;;;5036972;28;20041;-55
2022/03/29 10:27:54;;;;;;;14.20;10.57;;;18.80;80.20;;;;;;5050834;28;20029;-58
2022/03/29 10:30:40;;;;;;;16.88;11.43;;;18.70;79.60;;;;;;5054761;28;20033;-55
2022/03/29 10:33:19;;;;;;;17.10;10.98;;;18.40;79.80;;;;;;5062110;28;20025;-57
2022/03/29 10:36:05;;;;;;;19.20;11.48;;;18.20;80.00;;;;;;5058517;28;20519;-57
2022/03/29 10:38:49;;;;;;;19.08;11.75;;;17.90;80.30;;;;;;5056181;28;20512;-57
2022/03/29 10:41:30;;;;;;;25.42;11.85;;;17.30;81.30;;;;;;5058378;28;20032;-57
2022/03/29 10:44:14;;;;;;;15.30;10.77;;;17.50;81.30;;;;;;5057035;28;20025;-48
2022/03/29 10:46:47;;;;;;;17.42;11.07;;;17.20;81.00;;;;;;5062277;28;20051;-53
2022/03/29 10:49:28;;;;;;;16.80;10.53;;;17.10;81.10;;;;;;5054523;28;20021;-56
2022/03/29 10:52:19;;;;;;;17.38;10.80;;;17.30;81.10;;;;;;5041435;28;20330;-58
2022/03/29 10:54:45;;;;;;;16.40;10.20;;;17.60;80.30;;;;;;5049830;28;20044;-56
2022/03/29 10:57:14;;;;;;;17.05;10.05;;;17.60;80.50;;;;;;5053560;28;20037;-57
2022/03/29 10:59:40;;;;;;;15.82;9.43;;;17.90;80.70;;;;;;5064602;28;20036;-58
2022/03/29 11:02:08;;;;;;;15.85;10.25;;;18.00;79.60;;;;;;5061438;28;20091;-59
2022/03/29 11:04:34;;;;;;;17.98;9.73;;;17.90;79.10;;;;;;5056980;28;20047;-56
2022/03/29 11:07:06;;;;;;;12.18;9.23;;;17.70;79.00;;;;;;5057674;28;20028;-58
2022/03/29 11:09:36;;;;;;;15.48;10.65;;;17.90;79.00;;;;;;5061946;28;20434;-58
2022/03/29 11:12:03;;;;;;;15.50;9.25;;;17.60;79.10;;;;;;5056997;28;20028;-57
2022/03/29 11:14:33;;;;;;;19.23;11.20;;;17.60;80.00;;;;;;5050089;28;20023;-59
2022/03/29 11:17:11;;;;;;;14.10;8.57;;;17.70;80.40;;;;;;5050275;28;20032;-56
2022/03/29 11:19:48;;;;;;;12.18;8.82;;;18.10;79.00;;;;;;5058706;28;20024;-57
2022/03/29 11:22:34;;;;;;;11.68;9.63;;;18.30;78.80;;;;;;5060400;28;20025;-59
2022/03/29 11:25:02;;;;;;;14.25;9.10;;;18.10;78.00;;;;;;5036784;28;20411;-56
2022/03/29 11:27:32;;;;;;;15.90;9.65;;;18.30;76.90;;;;;;5061887;28;20498;-56
2022/03/29 11:29:59;;;;;;;15.63;8.60;;;18.00;77.80;;;;;;5051469;28;20052;-59
2022/03/29 11:32:25;;;;;;;14.45;9.43;;;18.20;77.70;;;;;;5066253;28;20021;-59
2022/03/29 11:34:53;;;;;;;13.52;9.23;;;18.30;76.70;;;;;;5069005;28;20087;-59
2022/03/29 11:37:39;;;;;;;14.25;8.68;;;17.80;78.60;;;;;;5060872;28;20024;-58
2022/03/29 11:40:07;;;;;;;12.75;9.75;;;17.90;78.40;;;;;;5060066;28;20025;-58
2022/03/29 11:42:45;;;;;;;13.07;8.63;;;18.00;78.20;;;;;;5053885;28;20033;-58
2022/03/29 11:45:12;;;;;;;14.00;9.05;;;18.10;79.30;;;;;;5053860;28;20036;-59
2022/03/29 11:47:39;;;;;;;12.05;8.73;;;17.80;77.40;;;;;;5064952;28;20039;-60
2022/03/29 11:50:05;;;;;;;13.15;8.27;;;18.00;76.90;;;;;;5060278;28;20051;-56
2022/03/29 11:52:35;;;;;;;21.88;8.85;;;17.40;77.20;;;;;;5061200;28;20319;-58
2022/03/29 11:55:01;;;;;;;11.57;7.53;;;17.60;78.10;;;;;;5057155;28;20033;-59
2022/03/29 11:57:29;;;;;;;13.13;7.57;;;17.70;78.10;;;;;;5061726;28;20103;-60
2022/03/29 11:59:56;;;;;;;11.95;7.07;;;18.00;78.60;;;;;;5045627;28;20025;-57
2022/03/29 12:02:22;;;;;;;10.95;7.15;;;18.00;77.90;;;;;;5070333;28;20016;-58
2022/03/29 12:04:49;;;;;;;8.57;6.88;;;18.30;78.00;;;;;;5065606;28;20545;-58
2022/03/29 12:07:14;;;;;;;14.93;6.60;;;18.30;78.90;;;;;;5058080;28;20029;-57
2022/03/29 12:09:46;;;;;;;10.90;6.82;;;18.50;77.00;;;;;;5062000;28;20115;-62
2022/03/29 12:12:12;;;;;;;10.90;6.60;;;18.50;75.50;;;;;;5059383;28;20028;-59
2022/03/29 12:14:38;;;;;;;7.53;5.18;;;18.50;75.40;;;;;;5057967;28;20101;-56
2022/03/29 12:17:07;;;;;;;8.35;5.93;;;18.50;75.00;;;;;;5061192;28;20426;-58
2022/03/29 12:19:36;;;;;;;8.27;5.85;;;18.40;74.60;;;;;;5053136;28;20017;-60
2022/03/29 12:22:04;;;;;;;10.10;6.20;;;18.30;73.90;;;;;;5054782;28;20057;-59
2022/03/29 12:24:42;;;;;;;9.43;6.72;;;17.90;75.80;;;;;;5061223;28;20017;-59
2022/03/29 12:27:12;;;;;;;12.75;7.85;;;17.90;76.10;;;;;;5048030;28;20052;-60
2022/03/29 12:29:53;;;;;;;10.85;5.75;;;18.20;74.60;;;;;;5062593;28;20034;-59
2022/03/29 12:32:20;;;;;;;11.00;5.43;;;18.40;75.40;;;;;;5058204;28;20024;-59
2022/03/29 12:34:58;;;;;;;13.10;5.68;;;18.80;74.80;;;;;;5060143;28;20108;-59
2022/03/29 12:37:23;;;;;;;7.57;5.63;;;18.80;72.80;;;;;;5063426;28;20514;-60
2022/03/29 12:39:56;;;;;;;8.27;4.45;;;18.80;73.10;;;;;;5071197;28;20037;-60
2022/03/29 12:42:22;;;;;;;6.15;4.18;;;18.80;73.30;;;;;;5056281;28;20087;-59
2022/03/29 12:45:00;;;;;;;6.65;3.95;;;19.00;72.50;;;;;;5053111;28;20025;-60